Terminal Aerodrome Forecast
Issued by NWS

Home | Current Version | Previous Version | Text Only | Print | Product List | Glossary On
Versions: 1 2 3 4 5 6 7 8 9 10 11 12 13 14 15
676
FTUS42 KMHX 290548
TAFISO
TAF
KISO 290548Z 2906/3006 00000KT 1/2SM FG BKN002
     FM291200 02006KT 4SM BR BKN005
     FM291600 04010KT P6SM BKN015
     FM291800 04009KT P6SM SCT025
      AMD LTD TO CLD VIS AND WIND=

USA.gov is the U.S. government's official web portal to all federal, state and local government web resources and services.